Time;durP1;ratioP1;P1;durP2;ratioP2;P2;SDS_P1;SDS_P2;PMS_P1;PMS_P2;Temp;Humidity;BMP_temperature;BMP_pressure;BME280_temperature;BME280_humidity;BME280_pressure;Samples;Min_cycle;Max_cycle;Signal;HPM_P1;HPM_P2
2022/12/16 00:00:41;;;;;;;12.83;7.07;;;;;;;;;;5088348;28;20243;-77
2022/12/16 00:03:08;;;;;;;14.07;9.50;;;;;;;;;;5084092;28;20219;-77
2022/12/16 00:05:37;;;;;;;17.87;13.33;;;;;;;;;;5071435;28;20226;-76
2022/12/16 00:08:04;;;;;;;10.50;5.40;;;;;;;;;;5088186;28;20678;-76
2022/12/16 00:10:51;;;;;;;25.17;18.00;;;;;;;;;;5074851;28;20856;-76
2022/12/16 00:13:19;;;;;;;12.10;8.70;;;;;;;;;;5083290;28;20230;-77
2022/12/16 00:15:46;;;;;;;11.30;8.23;;;;;;;;;;5084043;28;20675;-76
2022/12/16 00:18:13;;;;;;;18.53;12.43;;;;;;;;;;5091410;28;20194;-76
2022/12/16 00:20:45;;;;;;;14.60;9.13;;;;;;;;;;5091968;28;20198;-77
2022/12/16 00:23:13;;;;;;;6.47;5.17;;;;;;;;;;5091710;28;20723;-77
2022/12/16 00:25:41;;;;;;;11.07;4.83;;;;;;;;;;5085689;28;20231;-77
2022/12/16 00:28:09;;;;;;;8.93;5.20;;;;;;;;;;5072523;28;20219;-77
2022/12/16 00:30:36;;;;;;;9.13;4.80;;;;;;;;;;5073299;28;20271;-76
2022/12/16 00:33:03;;;;;;;11.23;5.30;;;;;;;;;;5086296;28;20217;-77
2022/12/16 00:35:30;;;;;;;7.67;4.60;;;;;;;;;;5086710;28;20201;-76
2022/12/16 00:37:59;;;;;;;9.73;4.83;;;;;;;;;;5073009;28;20248;-77
2022/12/16 00:40:26;;;;;;;12.40;5.43;;;;;;;;;;5090628;28;20271;-77
2022/12/16 00:42:54;;;;;;;11.37;5.50;;;;;;;;;;5078347;28;20264;-78
2022/12/16 00:45:21;;;;;;;7.60;4.60;;;;;;;;;;5088444;28;20232;-77
2022/12/16 00:47:49;;;;;;;9.97;4.90;;;;;;;;;;5074397;28;20248;-77
2022/12/16 00:50:17;;;;;;;8.63;4.97;;;;;;;;;;5074563;28;20706;-77
2022/12/16 00:52:45;;;;;;;9.47;5.03;;;;;;;;;;5072026;28;20300;-77
2022/12/16 00:55:14;;;;;;;10.43;5.50;;;;;;;;;;5082116;28;20226;-77
2022/12/16 00:57:41;;;;;;;10.60;5.20;;;;;;;;;;5082901;28;20198;-77
2022/12/16 01:00:11;;;;;;;8.03;4.77;;;;;;;;;;5090549;28;20195;-78
2022/12/16 01:02:39;;;;;;;10.33;5.37;;;;;;;;;;5082769;28;20310;-77
2022/12/16 01:05:06;;;;;;;9.97;5.80;;;;;;;;;;5073980;28;20202;-77
2022/12/16 01:07:34;;;;;;;9.70;5.47;;;;;;;;;;5079273;28;20230;-77
2022/12/16 01:10:01;;;;;;;9.47;5.63;;;;;;;;;;5074407;28;20238;-77
2022/12/16 01:12:30;;;;;;;9.83;5.60;;;;;;;;;;5081303;28;20658;-77
2022/12/16 01:14:57;;;;;;;12.60;5.40;;;;;;;;;;5083090;28;20206;-77
2022/12/16 01:17:25;;;;;;;11.10;5.43;;;;;;;;;;5080500;28;20258;-77
2022/12/16 01:19:52;;;;;;;8.80;5.37;;;;;;;;;;5072370;28;20234;-76
2022/12/16 01:22:19;;;;;;;13.00;5.80;;;;;;;;;;5089463;28;20644;-77
2022/12/16 01:24:47;;;;;;;12.60;5.70;;;;;;;;;;5089915;28;21699;-77
2022/12/16 01:27:14;;;;;;;11.53;5.70;;;;;;;;;;5091284;28;20251;-77
2022/12/16 01:29:43;;;;;;;8.23;5.10;;;;;;;;;;5089536;28;20661;-77
2022/12/16 01:32:12;;;;;;;9.77;5.53;;;;;;;;;;5088360;28;20275;-77
2022/12/16 01:34:39;;;;;;;11.70;5.80;;;;;;;;;;5081608;28;20230;-76
2022/12/16 01:37:07;;;;;;;12.57;6.30;;;;;;;;;;5095172;28;20256;-77
2022/12/16 01:39:34;;;;;;;12.10;5.97;;;;;;;;;;5089836;28;20234;-76
2022/12/16 01:42:01;;;;;;;10.87;6.37;;;;;;;;;;5090170;28;20237;-77
2022/12/16 01:44:28;;;;;;;11.97;6.00;;;;;;;;;;5095278;28;20233;-78
2022/12/16 01:46:59;;;;;;;12.00;6.00;;;;;;;;;;5084930;28;20197;-76
2022/12/16 01:49:28;;;;;;;12.70;5.67;;;;;;;;;;5074143;28;20288;-77
2022/12/16 01:51:56;;;;;;;10.87;5.23;;;;;;;;;;5073597;28;20239;-77
2022/12/16 01:54:26;;;;;;;12.87;6.43;;;;;;;;;;5074188;28;20196;-76
2022/12/16 01:56:55;;;;;;;9.80;6.03;;;;;;;;;;5074590;28;20266;-76
2022/12/16 01:59:23;;;;;;;13.87;6.27;;;;;;;;;;5074203;28;20202;-77
2022/12/16 02:01:51;;;;;;;11.20;5.77;;;;;;;;;;5073545;28;20257;-76
2022/12/16 02:04:19;;;;;;;8.97;5.87;;;;;;;;;;5077606;28;20554;-77
2022/12/16 02:06:46;;;;;;;11.27;6.20;;;;;;;;;;5085899;28;20220;-78
2022/12/16 02:09:15;;;;;;;12.27;6.13;;;;;;;;;;5090533;28;20206;-78
2022/12/16 02:11:51;;;;;;;10.43;6.63;;;;;;;;;;5090708;28;20285;-77
2022/12/16 02:14:34;;;;;;;10.87;6.20;;;;;;;;;;5077466;28;20227;-76
2022/12/16 02:17:05;;;;;;;14.03;6.90;;;;;;;;;;5082635;28;20233;-76
2022/12/16 02:19:45;;;;;;;12.03;6.17;;;;;;;;;;5078350;28;20223;-76
2022/12/16 02:22:20;;;;;;;13.50;6.30;;;;;;;;;;5087233;28;20229;-76
2022/12/16 02:25:00;;;;;;;10.53;5.90;;;;;;;;;;5087691;28;20251;-76
2022/12/16 02:27:44;;;;;;;10.00;6.10;;;;;;;;;;5073834;28;20218;-77
2022/12/16 02:30:38;;;;;;;13.97;6.37;;;;;;;;;;5073393;28;20225;-77
2022/12/16 02:33:14;;;;;;;13.03;6.40;;;;;;;;;;5013484;28;20255;-76
2022/12/16 02:35:45;;;;;;;13.77;6.47;;;;;;;;;;5022429;28;20290;-76
2022/12/16 02:38:18;;;;;;;10.23;5.63;;;;;;;;;;5018040;28;20208;-76
2022/12/16 02:40:51;;;;;;;10.67;6.27;;;;;;;;;;5002450;28;20207;-76
2022/12/16 02:43:23;;;;;;;12.67;6.27;;;;;;;;;;4996522;28;20668;-77
2022/12/16 02:45:50;;;;;;;9.83;6.53;;;;;;;;;;5011892;28;20205;-77
2022/12/16 02:48:19;;;;;;;13.27;6.63;;;;;;;;;;5011854;28;20675;-77
2022/12/16 02:50:49;;;;;;;10.30;6.17;;;;;;;;;;5030778;28;20200;-77
2022/12/16 02:53:17;;;;;;;14.07;6.23;;;;;;;;;;5018709;28;20255;-76
2022/12/16 02:55:50;;;;;;;12.60;6.50;;;;;;;;;;5023136;28;20636;-76
2022/12/16 02:58:20;;;;;;;13.10;6.83;;;;;;;;;;5022690;28;20205;-76
2022/12/16 03:00:52;;;;;;;12.10;6.60;;;;;;;;;;5020012;28;20261;-77
2022/12/16 03:03:26;;;;;;;13.17;6.90;;;;;;;;;;5019473;28;20232;-76
2022/12/16 03:05:55;;;;;;;13.57;6.60;;;;;;;;;;5011044;28;20266;-76
2022/12/16 03:08:25;;;;;;;13.53;6.53;;;;;;;;;;5029951;28;20292;-76
2022/12/16 03:10:57;;;;;;;10.67;6.07;;;;;;;;;;5074701;28;20632;-76
2022/12/16 03:13:26;;;;;;;12.43;6.47;;;;;;;;;;5075896;28;20625;-76
2022/12/16 03:15:54;;;;;;;13.07;5.43;;;;;;;;;;5089500;28;20661;-76
2022/12/16 03:18:23;;;;;;;10.03;6.00;;;;;;;;;;5077755;28;20294;-77
2022/12/16 03:20:54;;;;;;;11.30;6.17;;;;;;;;;;5081189;28;20236;-77
2022/12/16 03:23:23;;;;;;;10.40;5.83;;;;;;;;;;5086071;28;20252;-77
2022/12/16 03:25:51;;;;;;;9.90;5.80;;;;;;;;;;5092718;28;20257;-76
2022/12/16 03:28:26;;;;;;;12.43;5.80;;;;;;;;;;5085032;28;20236;-76
2022/12/16 03:30:57;;;;;;;11.27;5.63;;;;;;;;;;5084590;28;20245;-76
2022/12/16 03:33:28;;;;;;;10.90;5.87;;;;;;;;;;5072024;28;20240;-76
2022/12/16 03:36:00;;;;;;;9.17;5.90;;;;;;;;;;5072203;28;20205;-77
2022/12/16 03:38:27;;;;;;;10.97;5.57;;;;;;;;;;5075347;28;20224;-77
2022/12/16 03:40:56;;;;;;;8.93;5.60;;;;;;;;;;5085740;28;20224;-76
2022/12/16 03:43:23;;;;;;;8.77;5.50;;;;;;;;;;5080473;28;20229;-77
2022/12/16 03:45:53;;;;;;;11.87;5.57;;;;;;;;;;5084937;28;20251;-77
2022/12/16 03:48:23;;;;;;;10.57;5.63;;;;;;;;;;5072823;28;20240;-77
2022/12/16 03:50:52;;;;;;;11.63;5.50;;;;;;;;;;5078923;28;20202;-76
2022/12/16 03:53:23;;;;;;;10.73;5.33;;;;;;;;;;5080725;28;20251;-77
2022/12/16 03:55:50;;;;;;;10.17;5.17;;;;;;;;;;5079372;28;20202;-77
2022/12/16 03:58:19;;;;;;;11.50;5.60;;;;;;;;;;5078910;28;20204;-77
2022/12/16 04:00:46;;;;;;;8.57;4.93;;;;;;;;;;5085510;28;20212;-77
2022/12/16 04:03:13;;;;;;;12.47;5.63;;;;;;;;;;5079450;28;20210;-77
2022/12/16 04:05:41;;;;;;;8.17;5.17;;;;;;;;;;5090401;28;20197;-77
2022/12/16 04:08:09;;;;;;;14.27;5.63;;;;;;;;;;5092883;28;20274;-77
2022/12/16 04:24:29;;;;;;;9.87;5.53;;;;;;;;;;5076906;28;20283;-78
2022/12/16 04:32:22;;;;;;;8.77;5.70;;;;;;;;;;5080238;28;20198;-76
2022/12/16 04:34:50;;;;;;;11.07;6.07;;;;;;;;;;5073993;28;20218;-77
